F/V Renaissance II — FMEW — position and weather

sailwx.info

Track history (hours):
 
Tides and Currents Weather Stations Pressure Air Temp Water Temp Dewpoint Dewpoint Depression Visibility Wind Speed Wind Dir Waves Ship Positions

F/V Renaissance II

Last reported at 2014-Sep-02 18:33 UTC. Time now 2014-Sep-02 19:07 UTC.
Position N 46°26' W 001°46'.

Length 18 m.

Type: Fishing. MMSI: 228216600.

Date/timePositionNaut miles runAvg speedWind from/ knotsBaromVisibWave heightAir tempDewpointWater temp
2014-Sep-02 18:33N 46°26' W 001°46'5 4.7
2014-Sep-02 17:33N 46°22' W 001°46'1 0.8
2014-Sep-02 16:32N 46°21' W 001°45'1 1.4
2014-Sep-02 15:33N 46°20' W 001°44'3 2.7
2014-Sep-02 14:33N 46°19' W 001°47'2 1.6
2014-Sep-02 13:33N 46°21' W 001°48'2 1.9
2014-Sep-02 12:34N 46°19' W 001°47'0 0.1
2014-Sep-02 11:33N 46°19' W 001°47'1 1.1
2014-Sep-02 10:29N 46°19' W 001°45'0 0.4
2014-Sep-02 09:30N 46°19' W 001°45'1 0.8
2014-Sep-02 08:34N 46°18' W 001°46'1 1.1
2014-Sep-02 07:33N 46°19' W 001°45'1 0.7
2014-Sep-02 06:33N 46°19' W 001°44'1 1.4
2014-Sep-02 05:33N 46°18' W 001°43'6 5.6
2014-Sep-02 04:33N 46°23' W 001°46'7 6.9
2014-Sep-02 03:33N 46°30' W 001°47'0 0.0
2014-Sep-02 02:33N 46°30' W 001°47'0 0.0
2014-Sep-02 01:34N 46°30' W 001°47'0 0.0
2014-Sep-02 00:33N 46°30' W 001°47'0 0.0
2014-Sep-01 23:33N 46°30' W 001°47'0 0.0
2014-Sep-01 22:33N 46°30' W 001°47'0 0.0
2014-Sep-01 21:33N 46°30' W 001°47'0 0.0
2014-Sep-01 20:34N 46°30' W 001°47'0 0.0
2014-Sep-01 19:33N 46°30' W 001°47'0 0.0
2014-Sep-01 18:33N 46°30' W 001°47'0 0.1
2014-Sep-01 17:33N 46°30' W 001°47'0 0.0
2014-Sep-01 16:33N 46°30' W 001°47'0 0.0
2014-Sep-01 15:33N 46°30' W 001°47'0 0.0
2014-Sep-01 14:34N 46°30' W 001°47'0 0.0
2014-Sep-01 13:33N 46°30' W 001°47'0 0.0
2014-Sep-01 12:33N 46°30' W 001°47'0 0.0
2014-Sep-01 11:33N 46°30' W 001°47'0 0.0
2014-Sep-01 10:33N 46°30' W 001°47'0 0.0
2014-Sep-01 09:33N 46°30' W 001°47'0 0.0
2014-Sep-01 08:33N 46°30' W 001°47'0 0.0
2014-Sep-01 07:34N 46°30' W 001°47'0 0.1
2014-Sep-01 06:33N 46°30' W 001°47'0 0.0
2014-Sep-01 05:33N 46°30' W 001°47'0 0.0
2014-Sep-01 04:33N 46°30' W 001°47'0 0.0
2014-Sep-01 03:34N 46°30' W 001°47'0 0.0
2014-Sep-01 02:33N 46°30' W 001°47'0 0.0
2014-Sep-01 01:33N 46°30' W 001°47'0 0.0
2014-Sep-01 00:34N 46°30' W 001°47'0 0.0
2014-Aug-31 23:33N 46°30' W 001°47'0 0.0
2014-Aug-31 22:34N 46°30' W 001°47'0 0.0
2014-Aug-31 21:33N 46°30' W 001°47'0 0.0
2014-Aug-31 20:33N 46°30' W 001°47'0 0.0
2014-Aug-31 19:33N 46°30' W 001°47'0 0.0
2014-Aug-31 18:33N 46°30' W 001°47'2 2.2
2014-Aug-31 17:33N 46°28' W 001°48'9 9.4
2014-Aug-31 16:33N 46°21' W 001°58'13 2.5
2014-Aug-31 11:27N 46°16' W 002°14'2 0.8
2014-Aug-31 08:16N 46°15' W 002°18'1 1.4
2014-Aug-31 07:29N 46°15' W 002°19'10 4.5
2014-Aug-31 05:22N 46°19' W 002°07'7 9.1
2014-Aug-31 04:33N 46°24' W 001°58'9 8.8
2014-Aug-31 03:33N 46°28' W 001°47'1 1.4
2014-Aug-31 02:33N 46°30' W 001°48'0 0.0
2014-Aug-31 01:33N 46°30' W 001°48'0 0.0
2014-Aug-31 00:33N 46°30' W 001°48'0 0.0
2014-Aug-30 23:34N 46°30' W 001°48'0 0.0
2014-Aug-30 22:33N 46°30' W 001°48'0 0.0
2014-Aug-30 21:33N 46°30' W 001°48'0 0.0
2014-Aug-30 20:33N 46°30' W 001°48'0 0.0
2014-Aug-30 19:33N 46°30' W 001°48'0 0.0
2014-Aug-30 18:33N 46°30' W 001°48'0 0.2
2014-Aug-30 17:33N 46°30' W 001°47'5 5.3
2014-Aug-30 16:33N 46°25' W 001°50'9 8.5
2014-Aug-30 15:33N 46°17' W 001°56'15 1.6
2014-Aug-30 06:16N 46°07' W 001°40'710.2
2014-Aug-30 05:33N 46°14' W 001°42'1010.0
2014-Aug-30 04:33N 46°24' W 001°45'6 6.5
2014-Aug-30 03:33N 46°30' W 001°47'0 0.2
2014-Aug-30 02:33N 46°30' W 001°48'0 0.0
2014-Aug-30 01:33N 46°30' W 001°48'0 0.0
2014-Aug-30 00:33N 46°30' W 001°48'0 0.0
2014-Aug-29 23:33N 46°30' W 001°48'0 0.0
2014-Aug-29 22:33N 46°30' W 001°48'0 0.0
2014-Aug-29 21:34N 46°30' W 001°48'0 0.0
2014-Aug-29 20:33N 46°30' W 001°48'4 3.5
2014-Aug-29 19:33N 46°26' W 001°46'10 9.8
2014-Aug-29 18:34N 46°17' W 001°43'14 5.9
2014-Aug-29 16:05N 46°03' W 001°38'7 0.6
2014-Aug-29 04:29N 46°10' W 001°40'910.0
2014-Aug-29 03:33N 46°19' W 001°43'1010.2
2014-Aug-29 02:33N 46°28' W 001°47'1 1.5
2014-Aug-29 01:33N 46°30' W 001°47'3 3.4
2014-Aug-29 00:33N 46°27' W 001°46'4 4.4
2014-Aug-28 23:33N 46°22' W 001°45'4 4.5
2014-Aug-28 22:33N 46°18' W 001°43'5 4.9
2014-Aug-28 21:33N 46°13' W 001°41'2 0.1
2014-Aug-28 04:33N 46°12' W 001°40'10 9.9
2014-Aug-28 03:33N 46°21' W 001°44'9 8.9
2014-Aug-28 02:33N 46°30' W 001°47'0 0.0
2014-Aug-28 01:33N 46°30' W 001°47'0 0.0
2014-Aug-28 00:33N 46°30' W 001°47'0 0.0
2014-Aug-27 23:33N 46°30' W 001°47'0 0.0
2014-Aug-27 22:33N 46°30' W 001°47'0 0.0
2014-Aug-27 21:33N 46°30' W 001°48'0 0.0
2014-Aug-27 20:33N 46°30' W 001°47'0 0.0
2014-Aug-27 19:33N 46°30' W 001°47'0 0.0
2014-Aug-27 18:33N 46°30' W 001°47'0 0.2
2014-Aug-27 17:33N 46°30' W 001°47'6 5.5
2014-Aug-27 16:33N 46°25' W 001°49'2 1.9
2014-Aug-27 15:33N 46°23' W 001°51'4 3.6
2014-Aug-27 14:33N 46°22' W 001°46'1 0.6
2014-Aug-27 13:33N 46°22' W 001°45'1 1.2
2014-Aug-27 12:33N 46°21' W 001°45'1 1.3
2014-Aug-27 11:33N 46°19' W 001°45'1 1.3
2014-Aug-27 10:33N 46°18' W 001°44'1 0.7
2014-Aug-27 09:13N 46°18' W 001°45'2 2.4
2014-Aug-27 08:33N 46°18' W 001°43'1 1.3
2014-Aug-27 07:33N 46°18' W 001°45'0 0.3
2014-Aug-27 06:33N 46°18' W 001°45'1 0.8
2014-Aug-27 05:33N 46°18' W 001°44'7 7.3
2014-Aug-27 04:33N 46°25' W 001°46'5 4.8
2014-Aug-27 03:33N 46°30' W 001°48'0 0.0
2014-Aug-27 02:33N 46°30' W 001°48'0 0.0
2014-Aug-27 01:33N 46°30' W 001°48'0 0.0
2014-Aug-27 00:33N 46°30' W 001°48'0 0.0
2014-Aug-26 23:33N 46°30' W 001°48'0 0.0
2014-Aug-26 22:33N 46°30' W 001°48'0 0.0
2014-Aug-26 21:33N 46°30' W 001°48'0 0.0
2014-Aug-26 20:33N 46°30' W 001°48'0 0.0
2014-Aug-26 19:34N 46°30' W 001°48'6 5.7
2014-Aug-26 18:33N 46°24' W 001°48'8 8.4
2014-Aug-26 17:33N 46°16' W 001°48'6 5.8
2014-Aug-26 16:33N 46°10' W 001°49'2 1.4
2014-Aug-26 15:21N 46°09' W 001°51'1 0.5
2014-Aug-26 13:31N 46°09' W 001°50'4 4.4
2014-Aug-26 12:33N 46°13' W 001°47'6 5.9
2014-Aug-26 11:34N 46°18' W 001°44'1 1.2
2014-Aug-26 10:34N 46°17' W 001°43'1 1.2
2014-Aug-26 09:31N 46°17' W 001°45'1 0.5
2014-Aug-26 08:33N 46°18' W 001°45'2 2.0
2014-Aug-26 07:33N 46°19' W 001°42'2 1.7
2014-Aug-26 06:33N 46°18' W 001°44'1 1.2
2014-Aug-26 05:33N 46°19' W 001°44'9 8.8
2014-Aug-26 04:34N 46°28' W 001°47'2 1.8
2014-Aug-26 03:33N 46°30' W 001°47'0 0.1
2014-Aug-26 02:33N 46°30' W 001°48'0 0.0
2014-Aug-26 01:33N 46°30' W 001°48'0 0.0
2014-Aug-26 00:33N 46°30' W 001°48'0 0.0
2014-Aug-25 23:33N 46°30' W 001°48'0 0.0
2014-Aug-25 22:33N 46°30' W 001°48'0 0.0
2014-Aug-25 21:33N 46°30' W 001°48'0 0.0
2014-Aug-25 20:33N 46°30' W 001°48'0 0.0
2014-Aug-25 19:33N 46°30' W 001°48'0 0.0
2014-Aug-25 18:33N 46°30' W 001°48'2 2.4
2014-Aug-25 17:33N 46°28' W 001°47'8 8.1
2014-Aug-25 16:33N 46°20' W 001°45'1 0.9
2014-Aug-25 15:33N 46°19' W 001°44'1 0.6
2014-Aug-25 14:33N 46°19' W 001°45'2 1.7
2014-Aug-25 13:33N 46°18' W 001°43'1 1.0
2014-Aug-25 12:33N 46°19' W 001°44'0 0.5
2014-Aug-25 11:33N 46°18' W 001°44'1 0.6
2014-Aug-25 10:33N 46°19' W 001°44'1 0.6
2014-Aug-25 09:33N 46°18' W 001°44'3 2.8
2014-Aug-25 08:33N 46°21' W 001°45'3 2.5
2014-Aug-25 07:33N 46°24' W 001°46'0 0.3
2014-Aug-25 06:33N 46°24' W 001°46'6 6.1
2014-Aug-25 05:33N 46°30' W 001°48'0 0.0
2014-Aug-25 04:33N 46°30' W 001°48'0 0.0
2014-Aug-25 03:33N 46°30' W 001°48'0 0.0
2014-Aug-25 02:33N 46°30' W 001°48'0 0.0
2014-Aug-25 01:33N 46°30' W 001°48'0 0.0
2014-Aug-25 00:33N 46°30' W 001°48'0 0.0
2014-Aug-24 23:33N 46°30' W 001°48'0 0.0
2014-Aug-24 22:33N 46°30' W 001°48'0 0.0
2014-Aug-24 21:33N 46°30' W 001°48'0 0.0
2014-Aug-24 20:33N 46°30' W 001°48'0 0.0
2014-Aug-24 19:34N 46°30' W 001°48'0 0.3
2014-Aug-24 18:33N 46°30' W 001°47'0 0.0
2014-Aug-24 17:33N 46°30' W 001°47'5 4.6
2014-Aug-24 16:33N 46°25' W 001°46'1 1.0
2014-Aug-24 15:33N 46°24' W 001°46'2 1.6
2014-Aug-24 14:33N 46°24' W 001°44'1 1.0
2014-Aug-24 13:33N 46°24' W 001°46'0 0.3
2014-Aug-24 12:34N 46°24' W 001°46'1 1.3
2014-Aug-24 11:33N 46°24' W 001°44'2 1.7
2014-Aug-24 10:33N 46°23' W 001°45'2 2.3
2014-Aug-24 09:33N 46°25' W 001°47'1 1.3
2014-Aug-24 08:33N 46°25' W 001°45'1 1.1
2014-Aug-24 07:33N 46°24' W 001°47'3 3.2
2014-Aug-24 06:33N 46°23' W 001°51'1 1.5
2014-Aug-24 05:33N 46°25' W 001°52'1 1.4
2014-Aug-24 04:33N 46°24' W 001°52'2 1.7
2014-Aug-24 03:33N 46°25' W 001°50'3 3.1
2014-Aug-24 02:33N 46°28' W 001°48'2 2.4
2014-Aug-24 01:33N 46°30' W 001°47'4 4.4
2014-Aug-24 00:33N 46°26' W 001°46'10 9.6
2014-Aug-23 23:33N 46°16' W 001°43'  
Track history (hours):
 
Tides and Currents Weather Stations Pressure Air Temp Water Temp Dewpoint Dewpoint Depression Visibility Wind Speed Wind Dir Waves Ship Positions

F/V Renaissance II

Last reported at 2014-Sep-02 18:33 UTC. Time now 2014-Sep-02 19:07 UTC.
Position N 46°26' W 001°46'.

Length 18 m.

Type: Fishing. MMSI: 228216600.

Date/timePositionNaut miles runAvg speedWind from/ knotsBaromVisibWave heightAir tempDewpointWater temp
2014-Sep-02 18:33N 46°26' W 001°46'5 4.7
2014-Sep-02 17:33N 46°22' W 001°46'1 0.8
2014-Sep-02 16:32N 46°21' W 001°45'1 1.4
2014-Sep-02 15:33N 46°20' W 001°44'3 2.7
2014-Sep-02 14:33N 46°19' W 001°47'2 1.6
2014-Sep-02 13:33N 46°21' W 001°48'2 1.9
2014-Sep-02 12:34N 46°19' W 001°47'0 0.1
2014-Sep-02 11:33N 46°19' W 001°47'1 1.1
2014-Sep-02 10:29N 46°19' W 001°45'0 0.4
2014-Sep-02 09:30N 46°19' W 001°45'1 0.8
2014-Sep-02 08:34N 46°18' W 001°46'1 1.1
2014-Sep-02 07:33N 46°19' W 001°45'1 0.7
2014-Sep-02 06:33N 46°19' W 001°44'1 1.4
2014-Sep-02 05:33N 46°18' W 001°43'6 5.6
2014-Sep-02 04:33N 46°23' W 001°46'7 6.9
2014-Sep-02 03:33N 46°30' W 001°47'0 0.0
2014-Sep-02 02:33N 46°30' W 001°47'0 0.0
2014-Sep-02 01:34N 46°30' W 001°47'0 0.0
2014-Sep-02 00:33N 46°30' W 001°47'0 0.0
2014-Sep-01 23:33N 46°30' W 001°47'0 0.0
2014-Sep-01 22:33N 46°30' W 001°47'0 0.0
2014-Sep-01 21:33N 46°30' W 001°47'0 0.0
2014-Sep-01 20:34N 46°30' W 001°47'0 0.0
2014-Sep-01 19:33N 46°30' W 001°47'0 0.0
2014-Sep-01 18:33N 46°30' W 001°47'0 0.1
2014-Sep-01 17:33N 46°30' W 001°47'0 0.0
2014-Sep-01 16:33N 46°30' W 001°47'0 0.0
2014-Sep-01 15:33N 46°30' W 001°47'0 0.0
2014-Sep-01 14:34N 46°30' W 001°47'0 0.0
2014-Sep-01 13:33N 46°30' W 001°47'0 0.0
2014-Sep-01 12:33N 46°30' W 001°47'0 0.0
2014-Sep-01 11:33N 46°30' W 001°47'0 0.0
2014-Sep-01 10:33N 46°30' W 001°47'0 0.0
2014-Sep-01 09:33N 46°30' W 001°47'0 0.0
2014-Sep-01 08:33N 46°30' W 001°47'0 0.0
2014-Sep-01 07:34N 46°30' W 001°47'0 0.1
2014-Sep-01 06:33N 46°30' W 001°47'0 0.0
2014-Sep-01 05:33N 46°30' W 001°47'0 0.0
2014-Sep-01 04:33N 46°30' W 001°47'0 0.0
2014-Sep-01 03:34N 46°30' W 001°47'0 0.0
2014-Sep-01 02:33N 46°30' W 001°47'0 0.0
2014-Sep-01 01:33N 46°30' W 001°47'0 0.0
2014-Sep-01 00:34N 46°30' W 001°47'0 0.0
2014-Aug-31 23:33N 46°30' W 001°47'0 0.0
2014-Aug-31 22:34N 46°30' W 001°47'0 0.0
2014-Aug-31 21:33N 46°30' W 001°47'0 0.0
2014-Aug-31 20:33N 46°30' W 001°47'0 0.0
2014-Aug-31 19:33N 46°30' W 001°47'0 0.0
2014-Aug-31 18:33N 46°30' W 001°47'2 2.2
2014-Aug-31 17:33N 46°28' W 001°48'9 9.4
2014-Aug-31 16:33N 46°21' W 001°58'13 2.5
2014-Aug-31 11:27N 46°16' W 002°14'2 0.8
2014-Aug-31 08:16N 46°15' W 002°18'1 1.4
2014-Aug-31 07:29N 46°15' W 002°19'10 4.5
2014-Aug-31 05:22N 46°19' W 002°07'7 9.1
2014-Aug-31 04:33N 46°24' W 001°58'9 8.8
2014-Aug-31 03:33N 46°28' W 001°47'1 1.4
2014-Aug-31 02:33N 46°30' W 001°48'0 0.0
2014-Aug-31 01:33N 46°30' W 001°48'0 0.0
2014-Aug-31 00:33N 46°30' W 001°48'0 0.0
2014-Aug-30 23:34N 46°30' W 001°48'0 0.0
2014-Aug-30 22:33N 46°30' W 001°48'0 0.0
2014-Aug-30 21:33N 46°30' W 001°48'0 0.0
2014-Aug-30 20:33N 46°30' W 001°48'0 0.0
2014-Aug-30 19:33N 46°30' W 001°48'0 0.0
2014-Aug-30 18:33N 46°30' W 001°48'0 0.2
2014-Aug-30 17:33N 46°30' W 001°47'5 5.3
2014-Aug-30 16:33N 46°25' W 001°50'9 8.5
2014-Aug-30 15:33N 46°17' W 001°56'15 1.6
2014-Aug-30 06:16N 46°07' W 001°40'710.2
2014-Aug-30 05:33N 46°14' W 001°42'1010.0
2014-Aug-30 04:33N 46°24' W 001°45'6 6.5
2014-Aug-30 03:33N 46°30' W 001°47'0 0.2
2014-Aug-30 02:33N 46°30' W 001°48'0 0.0
2014-Aug-30 01:33N 46°30' W 001°48'0 0.0
2014-Aug-30 00:33N 46°30' W 001°48'0 0.0
2014-Aug-29 23:33N 46°30' W 001°48'0 0.0
2014-Aug-29 22:33N 46°30' W 001°48'0 0.0
2014-Aug-29 21:34N 46°30' W 001°48'0 0.0
2014-Aug-29 20:33N 46°30' W 001°48'4 3.5
2014-Aug-29 19:33N 46°26' W 001°46'10 9.8
2014-Aug-29 18:34N 46°17' W 001°43'14 5.9
2014-Aug-29 16:05N 46°03' W 001°38'7 0.6
2014-Aug-29 04:29N 46°10' W 001°40'910.0
2014-Aug-29 03:33N 46°19' W 001°43'1010.2
2014-Aug-29 02:33N 46°28' W 001°47'1 1.5
2014-Aug-29 01:33N 46°30' W 001°47'3 3.4
2014-Aug-29 00:33N 46°27' W 001°46'4 4.4
2014-Aug-28 23:33N 46°22' W 001°45'4 4.5
2014-Aug-28 22:33N 46°18' W 001°43'5 4.9
2014-Aug-28 21:33N 46°13' W 001°41'2 0.1
2014-Aug-28 04:33N 46°12' W 001°40'10 9.9
2014-Aug-28 03:33N 46°21' W 001°44'9 8.9
2014-Aug-28 02:33N 46°30' W 001°47'0 0.0
2014-Aug-28 01:33N 46°30' W 001°47'0 0.0
2014-Aug-28 00:33N 46°30' W 001°47'0 0.0
2014-Aug-27 23:33N 46°30' W 001°47'0 0.0
2014-Aug-27 22:33N 46°30' W 001°47'0 0.0
2014-Aug-27 21:33N 46°30' W 001°48'0 0.0
2014-Aug-27 20:33N 46°30' W 001°47'0 0.0
2014-Aug-27 19:33N 46°30' W 001°47'0 0.0
2014-Aug-27 18:33N 46°30' W 001°47'0 0.2
2014-Aug-27 17:33N 46°30' W 001°47'6 5.5
2014-Aug-27 16:33N 46°25' W 001°49'2 1.9
2014-Aug-27 15:33N 46°23' W 001°51'4 3.6
2014-Aug-27 14:33N 46°22' W 001°46'1 0.6
2014-Aug-27 13:33N 46°22' W 001°45'1 1.2
2014-Aug-27 12:33N 46°21' W 001°45'1 1.3
2014-Aug-27 11:33N 46°19' W 001°45'1 1.3
2014-Aug-27 10:33N 46°18' W 001°44'1 0.7
2014-Aug-27 09:13N 46°18' W 001°45'2 2.4
2014-Aug-27 08:33N 46°18' W 001°43'1 1.3
2014-Aug-27 07:33N 46°18' W 001°45'0 0.3
2014-Aug-27 06:33N 46°18' W 001°45'1 0.8
2014-Aug-27 05:33N 46°18' W 001°44'7 7.3
2014-Aug-27 04:33N 46°25' W 001°46'5 4.8
2014-Aug-27 03:33N 46°30' W 001°48'0 0.0
2014-Aug-27 02:33N 46°30' W 001°48'0 0.0
2014-Aug-27 01:33N 46°30' W 001°48'0 0.0
2014-Aug-27 00:33N 46°30' W 001°48'0 0.0
2014-Aug-26 23:33N 46°30' W 001°48'0 0.0
2014-Aug-26 22:33N 46°30' W 001°48'0 0.0
2014-Aug-26 21:33N 46°30' W 001°48'0 0.0
2014-Aug-26 20:33N 46°30' W 001°48'0 0.0
2014-Aug-26 19:34N 46°30' W 001°48'6 5.7
2014-Aug-26 18:33N 46°24' W 001°48'8 8.4
2014-Aug-26 17:33N 46°16' W 001°48'6 5.8
2014-Aug-26 16:33N 46°10' W 001°49'2 1.4
2014-Aug-26 15:21N 46°09' W 001°51'1 0.5
2014-Aug-26 13:31N 46°09' W 001°50'4 4.4
2014-Aug-26 12:33N 46°13' W 001°47'6 5.9
2014-Aug-26 11:34N 46°18' W 001°44'1 1.2
2014-Aug-26 10:34N 46°17' W 001°43'1 1.2
2014-Aug-26 09:31N 46°17' W 001°45'1 0.5
2014-Aug-26 08:33N 46°18' W 001°45'2 2.0
2014-Aug-26 07:33N 46°19' W 001°42'2 1.7
2014-Aug-26 06:33N 46°18' W 001°44'1 1.2
2014-Aug-26 05:33N 46°19' W 001°44'9 8.8
2014-Aug-26 04:34N 46°28' W 001°47'2 1.8
2014-Aug-26 03:33N 46°30' W 001°47'0 0.1
2014-Aug-26 02:33N 46°30' W 001°48'0 0.0
2014-Aug-26 01:33N 46°30' W 001°48'0 0.0
2014-Aug-26 00:33N 46°30' W 001°48'0 0.0
2014-Aug-25 23:33N 46°30' W 001°48'0 0.0
2014-Aug-25 22:33N 46°30' W 001°48'0 0.0
2014-Aug-25 21:33N 46°30' W 001°48'0 0.0
2014-Aug-25 20:33N 46°30' W 001°48'0 0.0
2014-Aug-25 19:33N 46°30' W 001°48'0 0.0
2014-Aug-25 18:33N 46°30' W 001°48'2 2.4
2014-Aug-25 17:33N 46°28' W 001°47'8 8.1
2014-Aug-25 16:33N 46°20' W 001°45'1 0.9
2014-Aug-25 15:33N 46°19' W 001°44'1 0.6
2014-Aug-25 14:33N 46°19' W 001°45'2 1.7
2014-Aug-25 13:33N 46°18' W 001°43'1 1.0
2014-Aug-25 12:33N 46°19' W 001°44'0 0.5
2014-Aug-25 11:33N 46°18' W 001°44'1 0.6
2014-Aug-25 10:33N 46°19' W 001°44'1 0.6
2014-Aug-25 09:33N 46°18' W 001°44'3 2.8
2014-Aug-25 08:33N 46°21' W 001°45'3 2.5
2014-Aug-25 07:33N 46°24' W 001°46'0 0.3
2014-Aug-25 06:33N 46°24' W 001°46'6 6.1
2014-Aug-25 05:33N 46°30' W 001°48'0 0.0
2014-Aug-25 04:33N 46°30' W 001°48'0 0.0
2014-Aug-25 03:33N 46°30' W 001°48'0 0.0
2014-Aug-25 02:33N 46°30' W 001°48'0 0.0
2014-Aug-25 01:33N 46°30' W 001°48'0 0.0
2014-Aug-25 00:33N 46°30' W 001°48'0 0.0
2014-Aug-24 23:33N 46°30' W 001°48'0 0.0
2014-Aug-24 22:33N 46°30' W 001°48'0 0.0
2014-Aug-24 21:33N 46°30' W 001°48'0 0.0
2014-Aug-24 20:33N 46°30' W 001°48'0 0.0
2014-Aug-24 19:34N 46°30' W 001°48'0 0.3
2014-Aug-24 18:33N 46°30' W 001°47'0 0.0
2014-Aug-24 17:33N 46°30' W 001°47'5 4.6
2014-Aug-24 16:33N 46°25' W 001°46'1 1.0
2014-Aug-24 15:33N 46°24' W 001°46'2 1.6
2014-Aug-24 14:33N 46°24' W 001°44'1 1.0
2014-Aug-24 13:33N 46°24' W 001°46'0 0.3
2014-Aug-24 12:34N 46°24' W 001°46'1 1.3
2014-Aug-24 11:33N 46°24' W 001°44'2 1.7
2014-Aug-24 10:33N 46°23' W 001°45'2 2.3
2014-Aug-24 09:33N 46°25' W 001°47'1 1.3
2014-Aug-24 08:33N 46°25' W 001°45'1 1.1
2014-Aug-24 07:33N 46°24' W 001°47'3 3.2
2014-Aug-24 06:33N 46°23' W 001°51'1 1.5
2014-Aug-24 05:33N 46°25' W 001°52'1 1.4
2014-Aug-24 04:33N 46°24' W 001°52'2 1.7
2014-Aug-24 03:33N 46°25' W 001°50'3 3.1
2014-Aug-24 02:33N 46°28' W 001°48'2 2.4
2014-Aug-24 01:33N 46°30' W 001°47'4 4.4
2014-Aug-24 00:33N 46°26' W 001°46'10 9.6
2014-Aug-23 23:33N 46°16' W 001°43'  

Dump ship's entire track history